Time;durP1;ratioP1;P1;durP2;ratioP2;P2;SDS_P1;SDS_P2;PMS_P1;PMS_P2;Temp;Humidity;BMP_temperature;BMP_pressure;BME280_temperature;BME280_humidity;BME280_pressure;Samples;Min_cycle;Max_cycle;Signal;HPM_P1;HPM_P2
2021/12/06 00:01:00;;;;;;;;;79.50;62.00;;;;;-146.39;100.00;62182.44;6313151;20;2878415;-43
2021/12/06 00:03:42;;;;;;;;;83.00;60.33;;;;;-146.39;100.00;62182.44;6283780;20;3643970;-44
2021/12/06 00:06:16;;;;;;;;;87.33;63.33;;;;;-146.39;100.00;62182.44;6315384;20;3638831;-43
2021/12/06 00:08:46;;;;;;;;;86.67;63.67;;;;;-146.39;100.00;62182.44;6313445;20;3643971;-44
2021/12/06 00:11:16;;;;;;;;;85.33;58.00;;;;;-146.39;100.00;62182.44;6314747;20;3636706;-44
2021/12/06 00:13:49;;;;;;;;;81.33;61.33;;;;;-146.39;100.00;62182.44;6314075;20;3609647;-43
2021/12/06 00:16:22;;;;;;;;;79.00;59.67;;;;;-146.39;100.00;62182.44;6310877;20;2894092;-43
2021/12/06 00:18:52;;;;;;;;;72.67;56.67;;;;;-146.39;100.00;62182.44;6312656;20;2885944;-44
2021/12/06 00:21:25;;;;;;;;;75.33;59.33;;;;;-146.39;100.00;62182.44;6312073;20;2882664;-44
2021/12/06 00:23:56;;;;;;;;;92.33;65.33;;;;;-146.39;100.00;62182.44;6313889;20;3647117;-45
2021/12/06 00:26:26;;;;;;;;;82.00;62.33;;;;;-146.39;100.00;62182.44;6279573;20;2877472;-44
2021/12/06 00:28:57;;;;;;;;;156.00;128.50;;;;;-146.39;100.00;62182.44;6307186;20;1955542;-43
2021/12/06 00:31:33;;;;;;;;;79.67;60.00;;;;;-146.39;100.00;62182.44;6275742;20;3640000;-45
2021/12/06 00:34:09;;;;;;;;;79.00;60.00;;;;;-146.39;100.00;62182.44;6315117;20;2876364;-44
2021/12/06 00:36:43;;;;;;;;;77.33;60.33;;;;;-146.39;100.00;62182.44;6314491;20;3639873;-43
2021/12/06 00:39:13;;;;;;;;;67.67;54.67;;;;;-146.39;100.00;62182.44;6311259;20;2879676;-44
2021/12/06 00:41:43;;;;;;;;;80.00;60.67;;;;;-146.39;100.00;62182.44;6308842;20;3634644;-44
2021/12/06 00:44:13;;;;;;;;;67.67;53.00;;;;;-146.39;100.00;62182.44;6312271;20;2896190;-44
2021/12/06 00:46:43;;;;;;;;;69.67;52.67;;;;;-146.39;100.00;62182.44;6310514;20;3631529;-44
2021/12/06 00:49:12;;;;;;;;;75.33;54.00;;;;;-146.39;100.00;62182.44;6311372;20;3647184;-45
2021/12/06 00:51:42;;;;;;;;;79.00;61.00;;;;;-146.39;100.00;62182.44;6314536;20;2885845;-43
2021/12/06 00:54:13;;;;;;;;;72.00;55.67;;;;;-146.39;100.00;62182.44;6313525;20;3639895;-43
2021/12/06 00:56:43;;;;;;;;;68.00;53.33;;;;;-146.39;100.00;62182.44;6313498;20;2869067;-43
2021/12/06 00:59:13;;;;;;;;;67.33;48.33;;;;;-146.39;100.00;62182.44;6311752;20;3637751;-44
2021/12/06 01:01:42;;;;;;;;;65.67;46.67;;;;;-146.39;100.00;62182.44;6309752;20;2879541;-44
2021/12/06 01:04:12;;;;;;;;;61.50;47.00;;;;;-146.39;100.00;62182.44;6313206;20;2869172;-46
2021/12/06 01:06:41;;;;;;;;;64.50;47.50;;;;;-146.39;100.00;62182.44;6280789;20;2872176;-45
2021/12/06 01:09:11;;;;;;;;;60.00;44.00;;;;;-146.39;100.00;62182.44;6278044;20;2879529;-45
2021/12/06 01:11:40;;;;;;;;;58.00;43.50;;;;;-146.39;100.00;62182.44;6311880;20;2877414;-45
2021/12/06 01:14:09;;;;;;;;;67.00;49.00;;;;;-146.39;100.00;62182.44;6278260;20;2874230;-44
2021/12/06 01:16:37;;;;;;;;;59.50;48.00;;;;;-146.39;100.00;62182.44;6279392;20;2496199;-44
2021/12/06 01:19:06;;;;;;;;;57.00;41.50;;;;;-146.39;100.00;62182.44;6280587;20;2873181;-42
2021/12/06 01:21:54;;;;;;;;;61.00;47.00;;;;;-146.39;100.00;62182.44;6280396;20;2860846;-43
2021/12/06 01:24:29;;;;;;;;;64.00;49.00;;;;;-146.39;100.00;62182.44;6282153;20;2869033;-45
2021/12/06 01:40:21;;;;;;;;;56.00;44.00;;;;;-146.39;100.00;62182.44;6280874;20;2874425;-43
2021/12/06 01:42:51;;;;;;;;;69.33;48.67;;;;;-146.39;100.00;62182.44;6311823;20;3628724;-43
2021/12/06 01:45:19;;;;;;;;;64.50;49.00;;;;;-146.39;100.00;62182.44;6309562;20;2467949;-44
2021/12/06 01:47:49;;;;;;;;;63.67;49.00;;;;;-146.39;100.00;62182.44;6279780;20;3617949;-43
2021/12/06 01:50:24;;;;;;;;;60.00;47.00;;;;;-146.39;100.00;62182.44;6312144;20;2873157;-44
2021/12/06 01:53:01;;;;;;;;;64.67;48.00;;;;;-146.39;100.00;62182.44;6279812;20;2871226;-43
2021/12/06 01:55:37;;;;;;;;;51.33;43.33;;;;;-146.39;100.00;62182.44;6312686;20;2870066;-45
2021/12/06 01:58:08;;;;;;;;;55.50;46.00;;;;;-146.39;100.00;62182.44;6311575;20;2843007;-44
2021/12/06 02:00:49;;;;;;;;;49.33;39.00;;;;;-146.39;100.00;62182.44;6281231;20;3617020;-45
2021/12/06 02:03:18;;;;;;;;;60.00;44.00;;;;;-146.39;100.00;62182.44;6312593;20;2750656;-44
2021/12/06 02:05:48;;;;;;;;;48.50;40.00;;;;;-146.39;100.00;62182.44;6311903;20;2855577;-45
2021/12/06 02:08:17;;;;;;;;;54.50;43.00;;;;;-146.39;100.00;62182.44;6279576;20;2859650;-44
2021/12/06 02:10:48;;;;;;;;;56.00;43.67;;;;;-146.39;100.00;62182.44;6279701;20;2873684;-45
2021/12/06 02:13:17;;;;;;;;;53.67;36.00;;;;;-146.39;100.00;62182.44;6309636;20;2880453;-44
2021/12/06 02:15:52;;;;;;;;;53.67;42.67;;;;;-146.39;100.00;62182.44;6310845;20;3617995;-47
2021/12/06 02:21:38;;;;;;;;;42.00;33.50;;;;;-146.39;100.00;62182.44;6309615;20;2844015;-43
2021/12/06 02:24:10;;;;;;;;;54.50;44.00;;;;;-146.39;100.00;62182.44;6279331;20;2493006;-45
2021/12/06 02:26:41;;;;;;;;;49.00;40.50;;;;;-146.39;100.00;62182.44;6277838;20;2858582;-44
2021/12/06 02:29:10;;;;;;;;;37.50;36.00;;;;;-146.39;100.00;62182.44;6278197;20;2843238;-44
2021/12/06 02:31:40;;;;;;;;;55.00;44.33;;;;;-146.39;100.00;62182.44;6278691;20;2871258;-43
2021/12/06 02:34:10;;;;;;;;;49.33;40.33;;;;;-146.39;100.00;62182.44;6307676;20;3600216;-44
2021/12/06 02:36:40;;;;;;;;;46.67;40.33;;;;;-146.39;100.00;62182.44;6310359;20;3602348;-44
2021/12/06 02:39:11;;;;;;;;;42.00;38.00;;;;;-146.39;100.00;62182.44;6306471;20;2863861;-44
2021/12/06 02:41:40;;;;;;;;;54.00;42.33;;;;;-146.39;100.00;62182.44;6306522;20;2871122;-43
2021/12/06 02:44:10;;;;;;;;;53.33;38.67;;;;;-146.39;100.00;62182.44;6308211;20;3643967;-43
2021/12/06 02:46:39;;;;;;;;;34.50;33.00;;;;;-146.39;100.00;62182.44;6307933;20;2848161;-45
2021/12/06 02:49:08;;;;;;;;;35.00;29.00;;;;;-146.39;100.00;62182.44;6278612;20;2863528;-43
2021/12/06 02:51:39;;;;;;;;;49.33;40.33;;;;;-146.39;100.00;62182.44;6276550;20;3624261;-44
2021/12/06 02:54:07;;;;;;;;;42.00;29.50;;;;;-146.39;100.00;62182.44;6308751;20;2500402;-41
2021/12/06 02:56:51;;;;;;;;;42.00;39.00;;;;;-146.39;100.00;62182.44;6278029;20;2857594;-44
2021/12/06 02:59:25;;;;;;;;;58.50;45.00;;;;;-146.39;100.00;62182.44;6275060;20;2852403;-43
2021/12/06 03:02:07;;;;;;;;;56.00;46.00;;;;;-146.39;100.00;62182.44;6274404;20;2855770;-44
2021/12/06 03:04:38;;;;;;;;;40.33;38.33;;;;;-146.39;100.00;62182.44;6309664;20;2856642;-44
2021/12/06 03:07:10;;;;;;;;;49.67;37.67;;;;;-146.39;100.00;62182.44;6311169;20;3629550;-44
2021/12/06 03:09:41;;;;;;;;;53.00;41.00;;;;;-146.39;100.00;62182.44;6311762;20;3632533;-46
2021/12/06 03:12:19;;;;;;;;;43.00;41.00;;;;;-146.39;100.00;62182.44;6313667;20;3626380;-43
2021/12/06 03:14:56;;;;;;;;;42.67;36.00;;;;;-146.39;100.00;62182.44;6312912;20;2867027;-46
2021/12/06 03:17:30;;;;;;;;;61.33;43.67;;;;;-146.39;100.00;62182.44;6313843;20;3620045;-44
2021/12/06 03:20:07;;;;;;;;;54.67;40.33;;;;;-146.39;100.00;62182.44;6310666;20;3632595;-43
2021/12/06 03:22:36;;;;;;;;;49.00;40.33;;;;;-146.39;100.00;62182.44;6309315;20;2868094;-44
2021/12/06 03:25:16;;;;;;;;;37.00;35.50;;;;;-146.39;100.00;62182.44;6315543;20;2851330;-43
2021/12/06 03:27:44;;;;;;;;;46.00;41.00;;;;;-146.39;100.00;62182.44;6281101;20;2508627;-44
2021/12/06 03:30:15;;;;;;;;;44.33;37.00;;;;;-146.39;100.00;62182.44;6283474;20;2868277;-45
2021/12/06 03:32:44;;;;;;;;;47.50;42.50;;;;;-146.39;100.00;62182.44;6314193;20;2855557;-43
2021/12/06 03:35:14;;;;;;;;;50.33;40.67;;;;;-146.39;100.00;62182.44;6285303;20;2868132;-45
2021/12/06 03:37:43;;;;;;;;;49.00;42.00;;;;;-146.39;100.00;62182.44;6316542;20;2854413;-45
2021/12/06 03:40:13;;;;;;;;;50.50;43.50;;;;;-146.39;100.00;62182.44;6283987;20;2849249;-43
2021/12/06 03:42:43;;;;;;;;;62.67;47.33;;;;;-146.39;100.00;62182.44;6282566;20;2863834;-43
2021/12/06 03:45:13;;;;;;;;;65.50;46.00;;;;;-146.39;100.00;62182.44;6315917;20;2880456;-44
2021/12/06 03:47:43;;;;;;;;;52.67;41.00;;;;;-146.39;100.00;62182.44;6283818;20;2866010;-43
2021/12/06 03:50:13;;;;;;;;;46.50;41.00;;;;;-146.39;100.00;62182.44;6312459;20;2837900;-44
2021/12/06 03:52:42;;;;;;;;;61.00;48.00;;;;;-146.39;100.00;62182.44;6281366;20;2860727;-43
2021/12/06 03:55:13;;;;;;;;;112.50;79.25;;;;;-146.39;100.00;62182.44;6281598;20;3704506;-44
2021/12/06 03:57:44;;;;;;;;;113.00;81.33;;;;;-146.39;100.00;62182.44;6281012;20;3683669;-43
2021/12/06 04:00:14;;;;;;;;;89.00;62.67;;;;;-146.39;100.00;62182.44;6282048;20;3664799;-45
2021/12/06 04:02:45;;;;;;;;;84.67;58.67;;;;;-146.39;100.00;62182.44;6313775;20;3664870;-44
2021/12/06 04:05:15;;;;;;;;;96.50;63.00;;;;;-146.39;100.00;62182.44;6314524;20;2689866;-45
2021/12/06 04:07:45;;;;;;;;;93.00;62.33;;;;;-146.39;100.00;62182.44;6315930;20;3664981;-47
2021/12/06 04:10:15;;;;;;;;;69.33;52.00;;;;;-146.39;100.00;62182.44;6283204;20;2877390;-43
2021/12/06 04:12:44;;;;;;;;;27.00;27.00;;;;;-146.39;100.00;62182.44;6313493;20;3572146;-43
2021/12/06 04:15:14;;;;;;;;;51.50;43.50;;;;;-146.39;100.00;62182.44;6284480;20;2865240;-45
2021/12/06 04:17:43;;;;;;;;;68.50;49.00;;;;;-146.39;100.00;62182.44;6282669;20;2860804;-43
2021/12/06 04:20:13;;;;;;;;;69.33;51.33;;;;;-146.39;100.00;62182.44;6281739;20;2872187;-45
2021/12/06 04:22:44;;;;;;;;;75.00;56.33;;;;;-146.39;100.00;62182.44;6313702;20;3637712;-44
2021/12/06 04:25:16;;;;;;;;;70.00;49.00;;;;;-146.39;100.00;62182.44;6314087;20;3630450;-45
2021/12/06 04:27:53;;;;;;;;;44.00;41.50;;;;;-146.39;100.00;62182.44;6314235;20;2859790;-43
2021/12/06 04:30:25;;;;;;;;;44.00;34.33;;;;;-146.39;100.00;62182.44;6280827;20;2864948;-45
2021/12/06 04:32:56;;;;;;;;;49.67;38.33;;;;;-146.39;100.00;62182.44;6311895;20;2883704;-43
2021/12/06 04:35:29;;;;;;;;;45.00;38.33;;;;;-146.39;100.00;62182.44;6314180;20;2869187;-44
2021/12/06 04:37:59;;;;;;;;;45.67;38.67;;;;;-146.39;100.00;62182.44;6313820;20;2865934;-44
2021/12/06 04:40:29;;;;;;;;;51.33;40.00;;;;;-146.39;100.00;62182.44;6309960;20;2873253;-44
2021/12/06 04:42:59;;;;;;;;;42.00;35.50;;;;;-146.39;100.00;62182.44;6312294;20;2852358;-43
2021/12/06 04:45:28;;;;;;;;;46.00;35.00;;;;;-146.39;100.00;62182.44;6280383;20;2872126;-44
2021/12/06 04:47:58;;;;;;;;;51.00;38.67;;;;;-146.39;100.00;62182.44;6282762;20;2872217;-44
2021/12/06 04:50:32;;;;;;;;;31.50;30.00;;;;;-146.39;100.00;62182.44;6312245;20;2840930;-43
2021/12/06 04:53:16;;;;;;;;;39.33;35.00;;;;;-146.39;100.00;62182.44;6281553;20;2864187;-44
2021/12/06 04:56:25;;;;;;;;;38.00;28.50;;;;;-146.39;100.00;62182.44;6313788;20;2853559;-46
2021/12/06 04:59:16;;;;;;;;;47.33;33.33;;;;;-146.39;100.00;62182.44;6278039;20;2876438;-43
2021/12/06 05:01:50;;;;;;;;;42.67;36.00;;;;;-146.39;100.00;62182.44;6312212;20;2867086;-43
2021/12/06 05:04:33;;;;;;;;;33.00;30.50;;;;;-146.39;100.00;62182.44;6312304;20;2832535;-43
2021/12/06 05:07:17;;;;;;;;;44.67;34.00;;;;;-146.39;100.00;62182.44;6282707;20;2874307;-44
2021/12/06 05:09:47;;;;;;;;;39.00;32.50;;;;;-146.39;100.00;62182.44;6311141;20;2850416;-44
2021/12/06 05:12:20;;;;;;;;;33.50;31.00;;;;;-146.39;100.00;62182.44;6278928;20;2500376;-43
2021/12/06 05:14:50;;;;;;;;;46.33;35.33;;;;;-146.39;100.00;62182.44;6280549;20;2876490;-43
2021/12/06 05:17:21;;;;;;;;;38.00;33.50;;;;;-146.39;100.00;62182.44;6311012;20;2844088;-44
2021/12/06 05:19:51;;;;;;;;;41.00;34.00;;;;;-146.39;100.00;62182.44;6278870;20;2864965;-47
2021/12/06 05:22:21;;;;;;;;;47.33;33.67;;;;;-146.39;100.00;62182.44;6281443;20;2872195;-46
2021/12/06 05:24:51;;;;;;;;;44.00;34.00;;;;;-146.39;100.00;62182.44;6308997;20;2856518;-46
2021/12/06 05:27:26;;;;;;;;;38.50;30.00;;;;;-146.39;100.00;62182.44;6277461;20;2500244;-49
2021/12/06 05:30:00;;;;;;;;;43.00;37.33;;;;;-146.39;100.00;62182.44;6274064;20;2865929;-49
2021/12/06 05:32:34;;;;;;;;;39.00;32.50;;;;;-146.39;100.00;62182.44;6311478;20;2855577;-46
2021/12/06 05:35:08;;;;;;;;;55.00;44.00;;;;;-146.39;100.00;62182.44;6281297;20;2869118;-50
2021/12/06 05:37:54;;;;;;;;;33.50;28.00;;;;;-146.39;100.00;62182.44;6280845;20;2843439;-48
2021/12/06 05:40:33;;;;;;;;;51.50;40.50;;;;;-146.39;100.00;62182.44;6280896;20;2881515;-46
2021/12/06 05:43:05;;;;;;;;;50.67;39.67;;;;;-146.39;100.00;62182.44;6280037;20;2877441;-47
2021/12/06 05:45:37;;;;;;;;;47.33;37.00;;;;;-146.39;100.00;62182.44;6309194;20;3618080;-48
2021/12/06 05:48:07;;;;;;;;;44.33;39.00;;;;;-146.39;100.00;62182.44;6311207;20;2863927;-46
2021/12/06 05:50:36;;;;;;;;;37.50;33.50;;;;;-146.39;100.00;62182.44;6308589;20;2854563;-48
2021/12/06 05:53:05;;;;;;;;;41.50;36.50;;;;;-146.39;100.00;62182.44;6277768;20;2862947;-46
2021/12/06 05:55:35;;;;;;;;;49.00;41.00;;;;;-146.39;100.00;62182.44;6280974;20;2875437;-50
2021/12/06 05:58:06;;;;;;;;;41.00;36.50;;;;;-146.39;100.00;62182.44;6312188;20;2868051;-46
2021/12/06 06:00:37;;;;;;;;;59.00;44.33;;;;;-146.39;100.00;62182.44;6278889;20;2875453;-46
2021/12/06 06:03:08;;;;;;;;;53.67;43.00;;;;;-146.39;100.00;62182.44;6310276;20;2863826;-47
2021/12/06 06:05:38;;;;;;;;;44.00;38.50;;;;;-146.39;100.00;62182.44;6312707;20;2870974;-46
2021/12/06 06:08:09;;;;;;;;;46.33;38.00;;;;;-146.39;100.00;62182.44;6279949;20;2868029;-46
2021/12/06 06:10:39;;;;;;;;;62.33;45.33;;;;;-146.39;100.00;62182.44;6311613;20;2868995;-48
2021/12/06 06:13:10;;;;;;;;;51.67;41.33;;;;;-146.39;100.00;62182.44;6312666;20;2883744;-46
2021/12/06 06:15:38;;;;;;;;;27.00;22.00;;;;;-146.39;100.00;62182.44;6315792;20;2816927;-48
2021/12/06 06:18:08;;;;;;;;;36.00;30.50;;;;;-146.39;100.00;62182.44;6278942;20;2858587;-46
2021/12/06 06:20:47;;;;;;;;;44.67;36.33;;;;;-146.39;100.00;62182.44;6279415;20;2871274;-47
2021/12/06 06:23:22;;;;;;;;;42.00;34.00;;;;;-146.39;100.00;62182.44;6310793;20;2854507;-46
2021/12/06 06:25:51;;;;;;;;;41.00;33.00;;;;;-146.39;100.00;62182.44;6279997;20;2857570;-47
2021/12/06 06:28:20;;;;;;;;;35.00;29.00;;;;;-146.39;100.00;62182.44;6279622;20;2852357;-46
2021/12/06 06:30:48;;;;;;;;;47.00;36.00;;;;;-146.39;100.00;62182.44;6275114;20;2500259;-47
2021/12/06 06:33:18;;;;;;;;;47.00;39.67;;;;;-146.39;100.00;62182.44;6279052;20;2866151;-46
2021/12/06 06:35:48;;;;;;;;;47.67;35.00;;;;;-146.39;100.00;62182.44;6310683;20;3632583;-48
2021/12/06 06:38:17;;;;;;;;;37.50;33.50;;;;;-146.39;100.00;62182.44;6308748;20;2860678;-46
2021/12/06 06:40:47;;;;;;;;;41.33;36.00;;;;;-146.39;100.00;62182.44;6280608;20;2870130;-46
2021/12/06 06:43:18;;;;;;;;;30.00;28.00;;;;;-146.39;100.00;62182.44;6316407;20;2853630;-47
2021/12/06 06:45:46;;;;;;;;;34.00;31.50;;;;;-146.39;100.00;62182.44;6283330;20;2500499;-49
2021/12/06 06:48:15;;;;;;;;;35.00;30.00;;;;;-146.39;100.00;62182.44;6285383;20;2860721;-46
2021/12/06 06:50:44;;;;;;;;;20.33;14.33;;;;;-146.39;100.00;62182.44;6286651;20;2811782;-47
2021/12/06 06:53:13;;;;;;;;;37.50;28.00;;;;;-146.39;100.00;62182.44;6311347;20;2862826;-47
2021/12/06 06:55:41;;;;;;;;;36.50;29.50;;;;;-146.39;100.00;62182.44;6284501;20;2854410;-48
2021/12/06 06:58:16;;;;;;;;;33.50;32.00;;;;;-146.39;100.00;62182.44;6284360;20;2850279;-47
2021/12/06 07:00:44;;;;;;;;;39.50;33.00;;;;;-146.39;100.00;62182.44;6283530;20;2845373;-46
2021/12/06 07:03:15;;;;;;;;;44.00;38.67;;;;;-146.39;100.00;62182.44;6285168;20;2862737;-46
2021/12/06 07:05:45;;;;;;;;;40.67;32.00;;;;;-146.39;100.00;62182.44;6316635;20;2849214;-47
2021/12/06 07:08:14;;;;;;;;;46.00;35.33;;;;;-146.39;100.00;62182.44;6309480;20;2873193;-45
2021/12/06 07:10:48;;;;;;;;;44.50;39.00;;;;;-146.39;100.00;62182.44;6315185;20;2854686;-47
2021/12/06 07:13:18;;;;;;;;;40.67;33.33;;;;;-146.39;100.00;62182.44;6285301;20;2864894;-46
2021/12/06 07:15:49;;;;;;;;;50.00;38.33;;;;;-146.39;100.00;62182.44;6316052;20;2875436;-47
2021/12/06 07:18:20;;;;;;;;;50.67;38.00;;;;;-146.39;100.00;62182.44;6313490;20;3632618;-46
2021/12/06 07:20:50;;;;;;;;;48.33;43.67;;;;;-146.39;100.00;62182.44;6314417;20;2869223;-46
2021/12/06 07:23:19;;;;;;;;;50.00;39.00;;;;;-146.39;100.00;62182.44;6315165;20;3633566;-46
2021/12/06 07:25:48;;;;;;;;;41.00;32.00;;;;;-146.39;100.00;62182.44;6316302;20;2731571;-47
2021/12/06 07:28:17;;;;;;;;;50.50;40.00;;;;;-146.39;100.00;62182.44;6315261;20;2874251;-47
2021/12/06 07:30:46;;;;;;;;;42.50;35.50;;;;;-146.39;100.00;62182.44;6283174;20;2861771;-52
2021/12/06 07:33:16;;;;;;;;;42.00;35.00;;;;;-146.39;100.00;62182.44;6285808;20;2866966;-48
2021/12/06 07:35:45;;;;;;;;;47.00;35.33;;;;;-146.39;100.00;62182.44;6315408;20;2859654;-47
2021/12/06 07:38:15;;;;;;;;;56.67;45.00;;;;;-146.39;100.00;62182.44;6315386;20;2864928;-47
2021/12/06 07:40:45;;;;;;;;;54.00;40.33;;;;;-146.39;100.00;62182.44;6315514;20;3627329;-47
2021/12/06 07:43:15;;;;;;;;;57.33;43.33;;;;;-146.39;100.00;62182.44;6315320;20;2874329;-49
2021/12/06 07:45:45;;;;;;;;;64.33;46.00;;;;;-146.39;100.00;62182.44;6314754;20;2883693;-49
2021/12/06 07:48:16;;;;;;;;;75.00;55.00;;;;;-146.39;100.00;62182.44;6314263;20;2890128;-47
2021/12/06 07:50:45;;;;;;;;;53.50;44.00;;;;;-146.39;100.00;62182.44;6312989;20;2846251;-46
2021/12/06 07:53:15;;;;;;;;;52.00;41.00;;;;;-146.39;100.00;62182.44;6283523;20;2859746;-47
2021/12/06 07:55:45;;;;;;;;;65.50;48.50;;;;;-146.39;100.00;62182.44;6314057;20;2867982;-47
2021/12/06 07:58:14;;;;;;;;;60.50;48.50;;;;;-146.39;100.00;62182.44;6282906;20;2864866;-46
2021/12/06 08:00:47;;;;;;;;;42.00;30.00;;;;;-146.39;100.00;62182.44;6284537;20;2873209;-50
2021/12/06 08:03:19;;;;;;;;;33.50;25.50;;;;;-146.39;100.00;62182.44;6284746;20;2853403;-48
2021/12/06 08:05:52;;;;;;;;;35.50;30.00;;;;;-146.39;100.00;62182.44;6280499;20;2846596;-46
2021/12/06 08:08:27;;;;;;;;;49.00;35.00;;;;;-146.39;100.00;62182.44;6283035;20;2697128;-47
2021/12/06 08:11:05;;;;;;;;;37.33;34.33;;;;;-146.39;100.00;62182.44;6313959;20;2854529;-48
2021/12/06 08:13:38;;;;;;;;;40.67;35.67;;;;;-146.39;100.00;62182.44;6312265;20;2857547;-48
2021/12/06 08:16:20;;;;;;;;;36.50;30.00;;;;;-146.39;100.00;62182.44;6313487;20;2860806;-46
2021/12/06 08:18:51;;;;;;;;;42.33;37.33;;;;;-146.39;100.00;62182.44;6283248;20;2871171;-47
2021/12/06 08:21:22;;;;;;;;;44.50;38.50;;;;;-146.39;100.00;62182.44;6314206;20;2858589;-44
2021/12/06 08:23:54;;;;;;;;;42.50;39.00;;;;;-146.39;100.00;62182.44;6283955;20;2872122;-47
2021/12/06 08:26:30;;;;;;;;;49.33;40.00;;;;;-146.39;100.00;62182.44;6282686;20;2868026;-46
2021/12/06 08:29:06;;;;;;;;;79.67;61.33;;;;;-146.39;100.00;62182.44;6311421;20;3640839;-48
2021/12/06 08:31:37;;;;;;;;;68.50;55.00;;;;;-146.39;100.00;62182.44;6312819;20;2866667;-48
2021/12/06 08:34:07;;;;;;;;;69.33;53.33;;;;;-146.39;100.00;62182.44;6283688;20;2874262;-48
2021/12/06 08:36:36;;;;;;;;;54.33;45.00;;;;;-146.39;100.00;62182.44;6313628;20;2877455;-47
2021/12/06 08:39:07;;;;;;;;;52.00;45.00;;;;;-146.39;100.00;62182.44;6313216;20;2866007;-49
2021/12/06 08:41:36;;;;;;;;;61.50;46.50;;;;;-146.39;100.00;62182.44;6281875;20;2853569;-50
2021/12/06 08:44:05;;;;;;;;;60.00;47.00;;;;;-146.39;100.00;62182.44;6282499;20;2853418;-46
2021/12/06 08:46:39;;;;;;;;;64.50;48.00;;;;;-146.39;100.00;62182.44;6282458;20;2870084;-48
2021/12/06 08:49:10;;;;;;;;;61.00;51.67;;;;;-146.39;100.00;62182.44;6281599;20;2866952;-47
2021/12/06 08:51:48;;;;;;;;;70.00;52.67;;;;;-146.39;100.00;62182.44;6312187;20;2887946;-48
2021/12/06 08:54:19;;;;;;;;;65.33;53.33;;;;;-146.39;100.00;62182.44;6313800;20;2869080;-49
2021/12/06 08:56:49;;;;;;;;;65.33;54.00;;;;;-146.39;100.00;62182.44;6311363;20;2860705;-51
2021/12/06 08:59:18;;;;;;;;;60.00;44.50;;;;;-146.39;100.00;62182.44;6313600;20;2874300;-49
2021/12/06 09:01:48;;;;;;;;;47.00;40.00;;;;;-146.39;100.00;62182.44;6282284;20;2878433;-47
2021/12/06 09:04:39;;;;;;;;;67.50;49.00;;;;;-146.39;100.00;62182.44;6280907;20;2863847;-47
2021/12/06 09:07:13;;;;;;;;;60.00;49.50;;;;;-146.39;100.00;62182.44;6279817;20;2863818;-49
2021/12/06 09:09:49;;;;;;;;;60.67;44.67;;;;;-146.39;100.00;62182.44;6281438;20;2875347;-47
2021/12/06 09:12:25;;;;;;;;;63.50;47.50;;;;;-146.39;100.00;62182.44;6309119;20;2470153;-47
2021/12/06 09:15:00;;;;;;;;;55.50;43.00;;;;;-146.39;100.00;62182.44;6282738;20;2875731;-46
2021/12/06 09:17:30;;;;;;;;;60.67;43.67;;;;;-146.39;100.00;62182.44;6281532;20;3614928;-47
2021/12/06 09:20:00;;;;;;;;;42.33;34.33;;;;;-146.39;100.00;62182.44;6310616;20;2874257;-46
2021/12/06 09:22:30;;;;;;;;;59.67;44.00;;;;;-146.39;100.00;62182.44;6312413;20;2878678;-47
2021/12/06 09:24:59;;;;;;;;;59.33;43.00;;;;;-146.39;100.00;62182.44;6312937;20;3618953;-47
2021/12/06 09:27:50;;;;;;;;;57.25;43.88;;;;;2.97;100.00;98650.41;6289123;20;3604561;-45
2021/12/06 09:30:26;;;;;;;;;57.00;46.00;;;;;3.02;100.00;98648.41;6339723;20;2864965;-46
2021/12/06 09:32:58;;;;;;;;;60.00;46.00;;;;;2.95;100.00;98650.50;6306491;20;2849291;-46
2021/12/06 09:35:38;;;;;;;;;45.00;38.33;;;;;3.02;100.00;98648.41;6307292;20;2858682;-46
2021/12/06 09:38:11;;;;;;;;;47.00;41.00;;;;;2.89;100.00;98663.19;6337311;20;2858592;-46
2021/12/06 09:40:48;;;;;;;;;54.67;41.00;;;;;2.93;100.00;98654.16;6340931;20;3643354;-47
2021/12/06 09:43:18;;;;;;;;;59.00;43.00;;;;;2.93;100.00;98659.47;6340461;20;2875364;-45
2021/12/06 09:45:47;;;;;;;;;57.50;44.50;;;;;3.08;100.00;98656.06;6306989;20;2869787;-45
2021/12/06 09:48:20;;;;;;;;;45.50;39.50;;;;;3.30;100.00;98654.09;6307592;20;2860845;-46
2021/12/06 09:51:02;;;;;;;;;55.00;46.00;;;;;3.21;100.00;98643.97;6333346;20;2467959;-45
2021/12/06 09:53:38;;;;;;;;;52.00;40.33;;;;;3.10;100.00;98646.25;6307001;20;3625262;-46
2021/12/06 09:56:23;;;;;;;;;58.00;43.50;;;;;3.19;100.00;98639.66;6336240;20;2868172;-46
2021/12/06 09:58:55;;;;;;;;;43.00;36.50;;;;;3.20;100.00;98642.22;6307035;20;2860720;-46
2021/12/06 10:01:37;;;;;;;;;46.00;39.00;;;;;3.02;100.00;98635.16;6308381;20;2853521;-45
2021/12/06 10:04:11;;;;;;;;;57.00;38.00;;;;;3.15;100.00;98638.09;6308365;20;3626286;-45
2021/12/06 10:06:43;;;;;;;;;45.67;38.00;;;;;3.07;100.00;98635.78;6339130;20;3613880;-48
2021/12/06 10:09:17;;;;;;;;;52.67;39.33;;;;;3.05;100.00;98627.03;6339206;20;3627467;-48
2021/12/06 10:11:48;;;;;;;;;49.33;40.33;;;;;3.00;100.00;98618.44;6340250;20;3608650;-46
2021/12/06 10:14:18;;;;;;;;;39.00;37.00;;;;;3.10;100.00;98622.38;6338008;20;2863931;-46
2021/12/06 10:16:48;;;;;;;;;66.67;52.67;;;;;3.05;100.00;98616.44;6306823;20;2865866;-47
2021/12/06 10:19:21;;;;;;;;;75.00;56.67;;;;;3.16;100.00;98623.88;6337494;20;3617001;-49
2021/12/06 10:21:52;;;;;;;;;65.67;49.67;;;;;3.16;100.00;98626.53;6338330;20;2867994;-47
2021/12/06 10:24:27;;;;;;;;;53.67;42.67;;;;;3.28;100.00;98624.13;6339663;20;2867040;-45
2021/12/06 10:27:15;;;;;;;;;61.00;46.33;;;;;3.16;100.00;98630.06;6337297;20;2868033;-46
2021/12/06 10:29:58;;;;;;;;;56.50;46.50;;;;;3.27;100.00;98632.19;6336998;20;2856502;-46
2021/12/06 10:32:36;;;;;;;;;65.00;45.67;;;;;3.24;100.00;98633.19;6307086;20;2877429;-47
2021/12/06 10:35:15;;;;;;;;;49.67;42.00;;;;;3.38;100.00;98642.28;6337260;20;2858592;-49
2021/12/06 10:37:55;;;;;;;;;32.00;24.50;;;;;3.19;100.00;98653.78;6326560;20;2837833;-47
2021/12/06 10:40:37;;;;;;;;;18.50;15.00;;;;;3.33;100.00;98660.22;6283122;20;2805458;-49
2021/12/06 10:43:13;;;;;;;;;36.00;34.50;;;;;3.21;100.00;98670.50;6284344;20;2848175;-46
2021/12/06 10:45:50;;;;;;;;;46.00;39.00;;;;;3.34;100.00;98676.03;6281692;20;2857576;-47
2021/12/06 10:48:30;;;;;;;;;45.00;35.33;;;;;3.41;100.00;98692.53;6284103;20;3610723;-46
2021/12/06 10:51:23;;;;;;;;;41.67;34.67;;;;;3.39;100.00;98695.25;6314541;20;3625271;-50
2021/12/06 10:54:02;;;;;;;;;38.00;30.00;;;;;3.56;100.00;98699.75;6313364;20;2856564;-46
2021/12/06 10:56:45;;;;;;;;;37.50;33.00;;;;;3.56;100.00;98696.25;6283291;20;2845216;-47
2021/12/06 10:59:31;;;;;;;;;80.00;58.67;;;;;3.40;100.00;98693.47;6281782;20;3651297;-46
2021/12/06 11:02:12;;;;;;;;;79.00;57.00;;;;;3.70;100.00;98673.38;6315492;20;3637752;-45
2021/12/06 11:04:42;;;;;;;;;99.33;74.33;;;;;3.76;100.00;98666.03;6314640;20;3670077;-45
2021/12/06 11:07:12;;;;;;;;;78.67;58.33;;;;;3.83;100.00;98673.63;6282438;20;3643068;-45
2021/12/06 11:09:46;;;;;;;;;98.00;83.00;;;;;3.74;100.00;98668.78;6312306;20;3661786;-46
2021/12/06 11:12:22;;;;;;;;;78.67;60.00;;;;;3.83;100.00;98668.31;6283153;20;3632522;-46
2021/12/06 11:14:51;;;;;;;;;48.67;43.33;;;;;3.76;100.00;98677.50;6320656;20;3622122;-50
2021/12/06 11:17:21;;;;;;;;;50.33;37.00;;;;;3.87;100.00;98683.16;6283152;20;2873326;-48
2021/12/06 11:19:52;;;;;;;;;43.00;39.50;;;;;3.83;100.00;98672.75;6312695;20;2856537;-45
2021/12/06 11:22:24;;;;;;;;;39.00;28.50;;;;;3.76;100.00;98674.84;6281266;20;2491989;-46